EW3804 Weather Reports


Display with metric or nautical units.
time (UTC)temp
F
wind
direction
speed
MPH
gust
MPH
rain 1hr
in
rain 24hr
in
rain mn
in
humidity
%
barometer
mb
20210617074648 75 259 0.0 0.0 0.00 0.00 0.00 84 1008.2
20210617073139 77 259 0.0 0.0 0.00 0.00 0.00 81 1008.2
20210617071711 77 259 0.0 0.0 0.00 0.00 0.00 81 1008.2
20210617070124 77 259 0.0 0.0 0.00 0.00 0.00 80 1008.2
20210617064639 77 259 0.0 0.0 0.00 0.00 0.00 79 1008.2
20210617063140 79 226 0.0 0.0 0.00 0.00 0.00 76 1008.2
20210617061626 78 237 0.0 1.0 0.00 0.00 0.00 76 1008.2
20210617060131 78 256 0.0 0.0 0.00 0.00 0.00 78 1008.2
20210617054627 79 256 0.0 0.0 0.00 0.00 0.00 76 1008.4
20210617053149 80 256 0.0 0.0 0.00 0.00 0.00 73 1008.5
20210617051707 80 256 0.0 0.0 0.00 0.00 0.00 72 1008.5
20210617050110 81 257 0.0 0.0 0.00 0.00 0.00 71 1008.7
20210617044648 81 256 0.0 0.0 0.00 0.00 0.00 72 1008.8
20210617043111 81 169 0.0 1.0 0.00 0.00 0.00 73 1008.8
20210617041618 80 111 0.0 0.0 0.00 0.00 0.00 74 1008.9
20210617040106 81 111 0.0 0.0 0.00 0.00 0.00 73 1009.0
20210617034602 81 112 0.0 0.0 0.00 0.00 0.00 72 1009.0
20210617033123 81 112 0.0 0.0 0.00 0.00 0.00 72 1008.8
20210617031543 82 122 0.0 0.0 0.00 0.00 0.00 69 1008.8
20210617030117 83 123 0.0 0.0 0.00 0.00 0.00 68 1008.6
20210617024649 84 139 0.0 0.0 0.00 0.00 0.00 66 1008.5
20210617023039 84 131 0.0 0.0 0.00 0.00 0.00 63 1008.3
20210617021614 85 138 0.0 3.0 0.00 0.00 0.00 61 1008.2
20210617020054 86 129 0.0 0.0 0.00 0.00 0.00 59 1008.1
20210617014537 87 131 0.0 1.0 0.00 0.00 0.00 58 1008.0
20210617013059 87 108 0.0 5.0 0.00 0.00 0.00 56 1007.9
20210617011637 89 122 0.0 4.0 0.00 0.00 0.00 54 1007.9
20210617010052 90 115 1.0 5.0 0.00 0.00 0.00 53 1007.8
20210617004539 91 117 3.0 6.0 0.00 0.00 0.00 52 1007.6
20210617003106 91 118 3.0 5.0 0.00 0.00 0.00 52 1007.5
20210617001530 92 108 2.0 7.0 0.00 0.00 0.00 49 1007.4
20210617000034 93 135 3.0 8.0 0.00 0.00 0.00 49 1007.3
20210616234614 94 90 2.0 6.0 0.00 0.00 0.00 45 1007.3
20210616233028 94 110 3.0 9.0 0.00 0.00 0.00 45 1007.3
20210616231549 94 115 3.0 9.0 0.00 0.00 0.00 46 1007.2
20210616230120 95 108 2.0 7.0 0.00 0.00 0.00 45 1007.2
20210616224559 94 56 3.0 7.0 0.00 0.00 0.00 44 1007.2
20210616223024 94 144 5.0 10.0 0.00 0.00 0.00 45 1007.3
20210616221518 94 117 4.0 6.0 0.00 0.00 0.00 45 1007.5
20210616220020 95 105 4.0 14.0 0.00 0.00 0.00 45 1007.6
20210616214531 95 138 4.0 9.0 0.00 0.00 0.00 45 1007.9
20210616213028 95 113 3.0 9.0 0.00 0.00 0.00 45 1008.1
20210616211527 95 72 5.0 9.0 0.00 0.00 0.00 42 1008.1
20210616210025 95 103 4.0 10.0 0.00 0.00 0.00 43 1008.2
20210616204518 94 133 4.0 8.0 0.00 0.00 0.00 46 1008.3
20210616203045 95 37 2.0 9.0 0.00 0.00 0.00 44 1008.4
20210616201509 94 76 0.0 10.0 0.00 0.00 0.00 47 1008.4
20210616200022 94 260 3.0 8.0 0.00 0.00 0.00 46 1008.6
20210616194508 94 127 5.0 12.0 0.00 0.00 0.00 44 1008.7
20210616193054 94 101 1.0 5.0 0.00 0.00 0.00 42 1008.9
20210616191514 95 65 4.0 10.0 0.00 0.00 0.00 37 1009.0
20210616190009 93 25 4.0 9.0 0.00 0.00 0.00 41 1009.0
20210616184721 93 84 4.0 9.0 0.00 0.00 0.00 44 1009.1
20210616183207 93 8 4.0 8.0 0.00 0.00 0.00 46 1009.1
20210616181640 93 53 4.0 10.0 0.00 0.00 0.00 48 1009.1
20210616180123 93 8 5.0 10.0 0.00 0.00 0.00 48 1009.4
20210616174750 92 141 2.0 10.0 0.00 0.00 0.00 49 1009.4
20210616173232 92 39 3.0 9.0 0.00 0.00 0.00 46 1009.5
20210616171628 92 302 0.0 6.0 0.00 0.00 0.00 46 1009.7
20210616170147 91 55 1.0 7.0 0.00 0.00 0.00 47 1009.6
20210616164713 91 41 0.0 6.0 0.00 0.00 0.00 50 1009.4
20210616163117 90 22 0.0 5.0 0.00 0.00 0.00 51 1009.6
20210616161613 91 221 0.0 7.0 0.00 0.00 0.00 53 1009.5
20210616160107 91 312 3.0 6.0 0.00 0.00 0.00 54 1009.5
20210616154645 90 256 0.0 4.0 0.00 0.00 0.00 53 1009.6
20210616153303 89 10 2.0 5.0 0.00 0.00 0.00 59 1009.7
20210616151708 89 18 0.0 0.0 0.00 0.00 0.00 58 1009.8
20210616150135 88 313 0.0 2.0 0.00 0.00 0.00 65 1009.9
20210616144605 87 333 0.0 5.0 0.00 0.00 0.00 69 1009.8
20210616143155 85 290 0.0 0.0 0.00 0.00 0.00 70 1009.9
20210616141552 83 7 0.0 2.0 0.00 0.00 0.00 73 1009.9
20210616140029 83 319 0.0 2.0 0.00 0.00 0.00 75 1009.7
20210616134552 80 298 0.0 4.0 0.00 0.00 0.00 78 1009.6
20210616133122 80 310 2.0 4.0 0.00 0.00 0.00 77 1009.7
20210616131629 80 309 0.0 1.0 0.00 0.00 0.00 78 1009.7
20210616130021 79 309 0.0 0.0 0.00 0.00 0.00 79 1009.7
20210616124534 78 309 0.0 0.0 0.00 0.00 0.00 81 1009.7
20210616123032 76 309 0.0 0.0 0.00 0.00 0.00 85 1009.5
20210616121517 75 309 0.0 0.0 0.00 0.00 0.00 86 1009.3
20210616120042 72 309 0.0 0.0 0.00 0.00 0.00 89 1009.1
20210616114551 72 309 0.0 0.0 0.00 0.00 0.00 89 1009.0
20210616113009 72 309 0.0 0.0 0.00 0.00 0.00 88 1008.9
20210616111512 73 309 0.0 0.0 0.00 0.00 0.00 88 1008.8
20210616110010 73 309 0.0 0.0 0.00 0.00 0.00 87 1008.9
20210616104503 74 309 0.0 0.0 0.00 0.00 0.00 86 1009.0
20210616103006 74 282 0.0 0.0 0.00 0.00 0.00 86 1008.9
20210616101509 74 282 0.0 0.0 0.00 0.00 0.00 86 1008.8
20210616100005 74 282 0.0 0.0 0.00 0.00 0.00 87 1008.6
20210616094651 75 282 0.0 0.0 0.00 0.00 0.00 85 1008.5
20210616093138 73 282 0.0 0.0 0.00 0.00 0.00 89 1008.4
20210616091609 74 282 0.0 1.0 0.00 0.00 0.00 86 1008.4
20210616090336 73 274 0.0 0.0 0.00 0.00 0.00 87 1008.5
20210616084652 73 91 0.0 0.0 0.00 0.00 0.00 88 1008.3
20210616083114 73 91 0.0 0.0 0.00 0.00 0.00 87 1008.2
20210616081724 74 91 0.0 0.0 0.00 0.00 0.00 86 1008.3
20210616080129 74 91 0.0 0.0 0.00 0.00 0.00 85 1008.2